createdAt,value
2018-09-13T00:02:26.133Z,7.67
2018-09-13T00:04:54.344Z,7.53
2018-09-13T00:07:22.500Z,7.40
2018-09-13T00:09:50.706Z,8.43
2018-09-13T00:12:18.865Z,6.60
2018-09-13T00:14:47.066Z,7.07
2018-09-13T00:17:15.245Z,7.27
2018-09-13T00:19:43.529Z,6.60
2018-09-13T00:22:11.700Z,7.73
2018-09-13T00:24:39.901Z,8.00
2018-09-13T00:27:08.065Z,7.00
2018-09-13T00:29:36.480Z,7.20
2018-09-13T00:32:04.652Z,7.70
2018-09-13T00:34:32.857Z,8.67
2018-09-13T00:37:01.087Z,7.43
2018-09-13T00:39:29.314Z,8.40
2018-09-13T00:41:57.493Z,7.97
2018-09-13T00:44:25.692Z,6.87
2018-09-13T00:46:53.902Z,6.70
2018-09-13T00:49:22.089Z,6.93
2018-09-13T00:51:50.314Z,7.50
2018-09-13T00:54:18.589Z,6.70
2018-09-13T00:56:46.821Z,6.97
2018-09-13T00:59:15.101Z,7.10
2018-09-13T01:01:43.299Z,7.67
2018-09-13T01:04:11.505Z,7.87
2018-09-13T01:06:39.668Z,8.63
2018-09-13T01:09:09.506Z,7.80
2018-09-13T01:11:37.865Z,7.77
2018-09-13T01:14:06.122Z,7.20
2018-09-13T01:16:34.341Z,8.37
2018-09-13T01:19:02.500Z,6.60
2018-09-13T01:21:30.694Z,7.10
2018-09-13T01:23:58.864Z,7.17
2018-09-13T01:26:27.064Z,8.40
2018-09-13T01:28:55.247Z,7.57
2018-09-13T01:31:23.456Z,6.97
2018-09-13T01:33:51.614Z,6.97
2018-09-13T01:36:19.839Z,7.77
2018-09-13T01:38:48.021Z,8.37
2018-09-13T01:41:16.226Z,8.90
2018-09-13T01:43:51.387Z,7.97
2018-09-13T01:46:19.611Z,7.90
2018-09-13T01:48:47.774Z,6.47
2018-09-13T01:51:15.969Z,7.97
2018-09-13T01:53:44.133Z,7.90
2018-09-13T01:56:12.760Z,6.67
2018-09-13T01:58:40.920Z,7.87
2018-09-13T02:01:09.177Z,8.00
2018-09-13T02:03:37.349Z,7.77
2018-09-13T02:06:05.669Z,6.50
2018-09-13T02:08:33.837Z,6.60
2018-09-13T02:11:02.029Z,7.73
2018-09-13T02:13:30.198Z,7.13
2018-09-13T02:15:58.402Z,7.57
2018-09-13T02:18:26.574Z,7.17
2018-09-13T02:20:54.774Z,7.80
2018-09-13T02:23:22.948Z,7.03
2018-09-13T02:25:51.160Z,7.13
2018-09-13T02:28:19.321Z,7.87
2018-09-13T02:30:47.525Z,8.33
2018-09-13T02:33:15.761Z,7.97
2018-09-13T02:35:43.949Z,8.40
2018-09-13T02:38:12.151Z,8.13
2018-09-13T02:40:40.332Z,8.10
2018-09-13T02:43:08.551Z,6.80
2018-09-13T02:45:36.716Z,8.40
2018-09-13T02:48:05.261Z,7.90
2018-09-13T02:50:33.424Z,7.27
2018-09-13T02:53:01.624Z,7.30
2018-09-13T02:55:29.815Z,8.03
2018-09-13T02:57:58.017Z,8.60
2018-09-13T03:00:29.001Z,8.00
2018-09-13T03:02:57.201Z,6.93
2018-09-13T03:05:25.379Z,7.67
2018-09-13T03:07:53.598Z,7.70
2018-09-13T03:10:21.777Z,7.50
2018-09-13T03:12:52.981Z,8.77
2018-09-13T03:15:21.217Z,7.00
2018-09-13T03:17:49.526Z,8.00
2018-09-13T03:20:17.809Z,7.90
2018-09-13T03:22:46.017Z,7.47
2018-09-13T03:25:14.273Z,8.13
2018-09-13T03:27:42.601Z,8.00
2018-09-13T03:30:10.882Z,7.27
2018-09-13T03:32:39.130Z,8.33
2018-09-13T03:35:07.370Z,7.63
2018-09-13T03:37:35.569Z,7.80
2018-09-13T03:40:03.946Z,7.70
2018-09-13T03:42:32.133Z,7.37
2018-09-13T03:45:07.037Z,6.77
2018-09-13T03:47:35.296Z,6.30
2018-09-13T03:50:03.553Z,7.10
2018-09-13T03:52:31.768Z,7.70
2018-09-13T03:54:59.933Z,7.60
2018-09-13T03:57:28.155Z,6.60
2018-09-13T03:59:56.465Z,7.50
2018-09-13T04:02:24.698Z,7.70
2018-09-13T04:04:52.933Z,7.33
2018-09-13T04:07:21.107Z,7.80
2018-09-13T04:09:49.313Z,7.60
2018-09-13T04:12:17.474Z,7.50
2018-09-13T04:14:45.665Z,8.20
2018-09-13T04:17:13.829Z,7.43
2018-09-13T04:19:43.869Z,7.27
2018-09-13T04:22:12.937Z,6.73
2018-09-13T04:24:41.477Z,7.13
2018-09-13T04:27:09.929Z,6.40
2018-09-13T04:29:38.145Z,7.80
2018-09-13T04:32:06.450Z,7.33
2018-09-13T04:34:34.765Z,7.63
2018-09-13T04:37:03.361Z,7.90
2018-09-13T04:39:31.568Z,7.20
2018-09-13T04:41:59.733Z,7.83
2018-09-13T04:44:27.934Z,7.03
2018-09-13T04:46:56.091Z,6.60
2018-09-13T04:49:24.277Z,7.67
2018-09-13T04:51:52.417Z,7.47
2018-09-13T04:54:20.616Z,8.30
2018-09-13T04:56:48.777Z,7.23
2018-09-13T04:59:17.060Z,7.30
2018-09-13T05:01:45.317Z,8.10
2018-09-13T05:04:13.524Z,8.23
2018-09-13T05:06:42.257Z,7.30
2018-09-13T05:09:13.162Z,7.40
2018-09-13T05:11:42.064Z,7.10
2018-09-13T05:14:11.315Z,8.23
2018-09-13T05:16:40.018Z,8.30
2018-09-13T05:19:08.634Z,6.60
2018-09-13T05:21:37.286Z,7.57
2018-09-13T05:24:05.811Z,7.63
2018-09-13T05:26:34.491Z,8.20
2018-09-13T05:29:03.196Z,7.00
2018-09-13T05:31:32.007Z,7.40
2018-09-13T05:34:00.848Z,7.10
2018-09-13T05:36:29.547Z,8.40
2018-09-13T05:38:58.302Z,7.30
2018-09-13T05:41:27.060Z,6.77
2018-09-13T05:43:55.628Z,8.10
2018-09-13T05:46:23.854Z,7.53
2018-09-13T05:48:52.020Z,8.03
2018-09-13T05:51:20.435Z,7.50
2018-09-13T05:53:48.553Z,8.70
2018-09-13T05:56:16.833Z,8.40
2018-09-13T05:58:45.014Z,8.27
2018-09-13T06:01:13.401Z,7.00
2018-09-13T06:03:41.569Z,7.00
2018-09-13T06:06:09.773Z,8.17
2018-09-13T06:08:37.931Z,8.20
2018-09-13T06:11:06.172Z,6.50
2018-09-13T06:13:34.375Z,7.40
2018-09-13T06:16:02.578Z,8.13
2018-09-13T06:18:31.008Z,6.70
2018-09-13T06:20:59.205Z,8.30
2018-09-13T06:23:27.374Z,7.37
2018-09-13T06:25:55.587Z,6.97
2018-09-13T06:28:23.744Z,6.67
2018-09-13T06:30:52.221Z,7.60
2018-09-13T06:33:20.374Z,7.30
2018-09-13T06:35:48.577Z,7.80
2018-09-13T06:38:16.778Z,7.57
2018-09-13T06:40:44.973Z,6.37
2018-09-13T06:43:13.413Z,6.40
2018-09-13T06:45:41.621Z,6.40
2018-09-13T06:48:09.812Z,6.93
2018-09-13T06:50:44.717Z,6.80
2018-09-13T06:53:12.910Z,6.90
2018-09-13T06:55:41.070Z,6.93
2018-09-13T06:58:09.282Z,6.43
2018-09-13T07:00:37.549Z,7.03
2018-09-13T07:03:05.886Z,6.13
2018-09-13T07:05:34.059Z,5.73
2018-09-13T07:08:02.248Z,6.17
2018-09-13T07:10:30.422Z,6.50
2018-09-13T07:12:58.649Z,5.87
2018-09-13T07:15:26.825Z,5.40
2018-09-13T07:17:55.008Z,5.87
2018-09-13T07:20:23.173Z,5.80
2018-09-13T07:22:51.365Z,7.60
2018-09-13T07:25:19.549Z,7.53
2018-09-13T07:27:47.752Z,6.10
2018-09-13T07:30:15.909Z,6.33
2018-09-13T07:32:44.133Z,6.87
2018-09-13T07:35:12.309Z,6.47
2018-09-13T07:37:40.840Z,6.17
2018-09-13T07:40:09.017Z,6.13
2018-09-13T07:42:37.335Z,4.70
2018-09-13T07:45:05.664Z,4.90
2018-09-13T07:47:33.901Z,4.57
2018-09-13T07:50:02.253Z,4.30
2018-09-13T07:52:30.593Z,4.77
2018-09-13T07:54:58.757Z,4.17
2018-09-13T07:57:27.007Z,4.63
2018-09-13T07:59:55.169Z,4.60
2018-09-13T08:02:23.359Z,4.33
2018-09-13T08:04:51.572Z,4.80
2018-09-13T08:07:19.748Z,4.90
2018-09-13T08:09:47.913Z,4.43
2018-09-13T08:12:16.197Z,5.50
2018-09-13T08:14:44.469Z,5.90
2018-09-13T08:17:12.857Z,5.33
2018-09-13T08:19:41.049Z,4.60
2018-09-13T08:22:09.267Z,4.63
2018-09-13T08:24:37.437Z,5.00
2018-09-13T08:27:05.663Z,5.50
2018-09-13T08:29:33.842Z,4.47
2018-09-13T08:32:02.029Z,4.03
2018-09-13T08:34:30.273Z,4.87
2018-09-13T08:36:58.553Z,4.03
2018-09-13T08:39:26.790Z,5.33
2018-09-13T08:41:54.970Z,4.80
2018-09-13T08:44:23.160Z,5.77
2018-09-13T08:46:51.328Z,5.33
2018-09-13T08:49:19.536Z,5.40
2018-09-13T08:51:47.749Z,6.37
2018-09-13T08:54:15.954Z,5.23
2018-09-13T08:56:44.130Z,5.30
2018-09-13T08:59:12.377Z,5.80
2018-09-13T09:01:40.540Z,4.97
2018-09-13T09:04:08.792Z,5.20
2018-09-13T09:06:37.089Z,5.17
2018-09-13T09:09:08.901Z,5.13
2018-09-13T09:11:37.101Z,5.90
2018-09-13T09:14:05.405Z,9.47
2018-09-13T09:16:33.700Z,5.17
2018-09-13T09:19:02.150Z,5.17
2018-09-13T09:21:30.400Z,5.13
2018-09-13T09:23:58.668Z,5.73
2018-09-13T09:26:26.833Z,5.90
2018-09-13T09:28:55.099Z,6.17
2018-09-13T09:31:23.244Z,6.07
2018-09-13T09:33:51.441Z,6.60
2018-09-13T09:36:19.642Z,5.27
2018-09-13T09:38:48.099Z,6.07
2018-09-13T09:41:16.305Z,6.37
2018-09-13T09:43:44.558Z,5.40
2018-09-13T09:46:12.755Z,4.90
2018-09-13T09:48:40.977Z,5.43
2018-09-13T09:51:09.534Z,6.37
2018-09-13T09:53:37.701Z,5.83
2018-09-13T09:56:05.969Z,5.67
2018-09-13T09:58:34.189Z,5.33
2018-09-13T10:01:08.436Z,5.57
2018-09-13T10:03:36.905Z,4.80
2018-09-13T10:06:05.617Z,4.97
2018-09-13T10:08:34.297Z,5.37
2018-09-13T10:11:03.497Z,5.30
2018-09-13T10:13:32.356Z,5.17
2018-09-13T10:16:06.703Z,5.70
2018-09-13T10:18:42.594Z,4.50
2018-09-13T10:21:16.603Z,4.70
2018-09-13T10:23:50.547Z,4.30
2018-09-13T10:26:24.569Z,4.33
2018-09-13T10:28:58.655Z,5.70
2018-09-13T10:31:32.967Z,4.60
2018-09-13T10:34:06.971Z,4.30
2018-09-13T10:36:40.968Z,5.00
2018-09-13T10:39:14.585Z,4.10
2018-09-13T10:41:48.367Z,4.87
2018-09-13T10:44:21.992Z,4.70
2018-09-13T10:46:55.771Z,4.23
2018-09-13T10:49:29.372Z,4.20
2018-09-13T10:52:02.980Z,5.70
2018-09-13T10:54:46.122Z,5.00
2018-09-13T10:57:19.765Z,5.60
2018-09-13T10:59:48.428Z,4.93
2018-09-13T11:02:16.641Z,5.00
2018-09-13T11:04:45.140Z,5.57
2018-09-13T11:07:13.317Z,5.17
2018-09-13T11:09:41.514Z,5.30
2018-09-13T11:12:09.826Z,5.27
2018-09-13T11:14:56.486Z,5.00
2018-09-13T11:17:25.606Z,4.50
2018-09-13T11:19:53.932Z,4.53
2018-09-13T11:22:22.089Z,5.30
2018-09-13T11:24:50.329Z,5.30
2018-09-13T11:27:18.490Z,5.00
2018-09-13T11:29:46.677Z,4.40
2018-09-13T11:32:14.833Z,3.70
2018-09-13T11:34:43.953Z,3.77
2018-09-13T11:37:12.468Z,5.20
2018-09-13T11:39:40.702Z,5.13
2018-09-13T11:42:09.101Z,4.93
2018-09-13T11:44:37.309Z,4.63
2018-09-13T11:47:05.968Z,4.30
2018-09-13T11:49:34.326Z,5.07
2018-09-13T11:52:02.512Z,5.67
2018-09-13T11:54:30.709Z,4.73
2018-09-13T11:56:58.865Z,5.57
2018-09-13T11:59:27.048Z,5.60
2018-09-13T12:01:58.264Z,5.07
2018-09-13T12:04:26.983Z,4.57
2018-09-13T12:06:55.185Z,5.20
2018-09-13T12:09:23.383Z,5.27
2018-09-13T12:11:51.584Z,5.27
2018-09-13T12:14:19.857Z,5.80
2018-09-13T12:16:48.101Z,4.77
2018-09-13T12:19:16.316Z,5.07
2018-09-13T12:21:44.501Z,5.00
2018-09-13T12:24:12.674Z,4.70
2018-09-13T12:26:40.854Z,4.80
2018-09-13T12:29:09.032Z,4.93
2018-09-13T12:31:37.232Z,6.17
2018-09-13T12:34:05.392Z,5.20
2018-09-13T12:36:33.637Z,5.13
2018-09-13T12:39:01.785Z,4.77
2018-09-13T12:41:30.000Z,4.83
2018-09-13T12:43:58.256Z,4.43
2018-09-13T12:46:26.445Z,4.20
2018-09-13T12:48:54.655Z,4.30
2018-09-13T12:51:22.935Z,3.97
2018-09-13T12:53:51.121Z,4.17
2018-09-13T12:56:19.394Z,4.40
2018-09-13T12:58:47.707Z,4.50
2018-09-13T13:01:15.893Z,3.90
2018-09-13T13:03:44.109Z,4.87
2018-09-13T13:06:12.333Z,3.47
2018-09-13T13:08:40.640Z,4.20
2018-09-13T13:11:08.805Z,3.90
2018-09-13T13:13:37.313Z,3.83
2018-09-13T13:16:05.469Z,4.00
2018-09-13T13:18:33.731Z,3.23
2018-09-13T13:21:01.921Z,4.27
2018-09-13T13:23:30.105Z,3.70
2018-09-13T13:25:58.378Z,3.87
2018-09-13T13:28:26.592Z,5.03
2018-09-13T13:30:54.787Z,4.57
2018-09-13T13:33:22.973Z,3.60
2018-09-13T13:35:51.138Z,4.03
2018-09-13T13:38:19.433Z,3.33
2018-09-13T13:40:47.580Z,4.27
2018-09-13T13:43:15.849Z,4.17
2018-09-13T13:45:44.087Z,3.77
2018-09-13T13:48:13.212Z,4.50
2018-09-13T13:50:41.393Z,3.47
2018-09-13T13:53:09.577Z,4.57
2018-09-13T13:55:37.724Z,3.70
2018-09-13T13:58:05.916Z,4.63
2018-09-13T14:00:34.061Z,3.90
2018-09-13T14:03:02.304Z,4.73
2018-09-13T14:05:30.440Z,4.80
2018-09-13T14:07:58.641Z,4.60
2018-09-13T14:10:26.810Z,4.20
2018-09-13T14:12:55.036Z,4.53
2018-09-13T14:15:23.199Z,4.97
2018-09-13T14:17:51.539Z,5.20
2018-09-13T14:20:19.780Z,4.27
2018-09-13T14:22:48.150Z,4.47
2018-09-13T14:25:16.467Z,4.50
2018-09-13T14:27:44.735Z,4.80
2018-09-13T14:30:12.923Z,3.80
2018-09-13T14:32:41.092Z,4.20
2018-09-13T14:35:09.306Z,3.50
2018-09-13T14:37:37.465Z,3.77
2018-09-13T14:40:05.698Z,3.77
2018-09-13T14:42:33.905Z,3.20
2018-09-13T14:45:02.095Z,3.57
2018-09-13T14:47:30.263Z,3.50
2018-09-13T14:49:58.465Z,4.17
2018-09-13T14:52:26.609Z,4.60
2018-09-13T14:54:54.808Z,4.20
2018-09-13T14:57:23.138Z,3.77
2018-09-13T14:59:51.325Z,3.90
2018-09-13T15:02:19.490Z,3.67
2018-09-13T15:04:47.839Z,3.80
2018-09-13T15:07:16.059Z,4.00
2018-09-13T15:09:44.405Z,3.80
2018-09-13T15:12:12.677Z,3.40
2018-09-13T15:14:40.895Z,4.07
2018-09-13T15:17:09.284Z,4.33
2018-09-13T15:19:37.494Z,5.13
2018-09-13T15:22:05.731Z,4.60
2018-09-13T15:24:33.997Z,4.40
2018-09-13T15:27:02.177Z,3.93
2018-09-13T15:29:30.381Z,3.60
2018-09-13T15:31:58.590Z,4.60
2018-09-13T15:34:26.801Z,4.73
2018-09-13T15:36:55.003Z,3.80
2018-09-13T15:39:23.230Z,4.40
2018-09-13T15:41:51.418Z,3.70
2018-09-13T15:44:19.705Z,4.47
2018-09-13T15:46:47.857Z,4.43
2018-09-13T15:49:16.065Z,4.43
2018-09-13T15:51:44.286Z,4.50
2018-09-13T15:54:12.558Z,4.83
2018-09-13T15:56:40.789Z,5.00
2018-09-13T15:59:09.056Z,5.53
2018-09-13T16:01:37.392Z,5.33
2018-09-13T16:04:05.718Z,4.73
2018-09-13T16:06:33.945Z,5.13
2018-09-13T16:09:02.208Z,5.00
2018-09-13T16:11:30.399Z,4.70
2018-09-13T16:13:58.585Z,4.90
2018-09-13T16:16:26.789Z,5.50
2018-09-13T16:18:54.973Z,4.93
2018-09-13T16:21:23.190Z,4.97
2018-09-13T16:23:51.444Z,5.30
2018-09-13T16:26:19.782Z,5.27
2018-09-13T16:28:48.166Z,5.27
2018-09-13T16:31:16.681Z,5.23
2018-09-13T16:33:44.844Z,5.50
2018-09-13T16:36:21.946Z,5.63
2018-09-13T16:38:56.338Z,5.10
2018-09-13T16:41:30.761Z,6.50
2018-09-13T16:44:02.557Z,6.00
2018-09-13T16:46:37.188Z,6.13
2018-09-13T16:49:06.324Z,6.57
2018-09-13T16:51:35.134Z,5.87
2018-09-13T16:54:03.339Z,5.70
2018-09-13T16:56:31.642Z,5.07
2018-09-13T16:59:00.177Z,6.00
2018-09-13T17:01:28.469Z,6.47
2018-09-13T17:03:56.667Z,5.53
2018-09-13T17:06:24.985Z,6.20
2018-09-13T17:08:53.165Z,6.30
2018-09-13T17:11:21.447Z,6.90
2018-09-13T17:13:49.737Z,5.67
2018-09-13T17:16:17.997Z,6.60
2018-09-13T17:18:46.261Z,6.70
2018-09-13T17:21:14.429Z,6.03
2018-09-13T17:23:42.654Z,7.10
2018-09-13T17:26:10.826Z,6.47
2018-09-13T17:28:39.061Z,6.13
2018-09-13T17:31:07.344Z,6.27
2018-09-13T17:33:35.700Z,5.70
2018-09-13T17:36:03.905Z,5.23
2018-09-13T17:38:32.205Z,4.90
2018-09-13T17:41:00.420Z,4.60
2018-09-13T17:43:28.695Z,5.20
2018-09-13T17:45:56.974Z,5.30
2018-09-13T17:48:25.190Z,4.20
2018-09-13T17:50:53.378Z,4.87
2018-09-13T17:53:21.584Z,5.27
2018-09-13T17:55:49.870Z,4.60
2018-09-13T17:58:18.108Z,4.70
2018-09-13T18:00:46.338Z,5.00
2018-09-13T18:03:14.692Z,4.90
2018-09-13T18:05:42.995Z,4.70
2018-09-13T18:08:11.222Z,5.47
2018-09-13T18:10:39.398Z,4.40
2018-09-13T18:13:07.640Z,6.20
2018-09-13T18:15:35.834Z,5.30
2018-09-13T18:18:04.071Z,5.73
2018-09-13T18:20:32.265Z,6.77
2018-09-13T18:23:00.556Z,6.20
2018-09-13T18:25:28.767Z,6.40
2018-09-13T18:27:57.026Z,6.13
2018-09-13T18:30:25.245Z,7.30
2018-09-13T18:32:53.600Z,6.70
2018-09-13T18:35:21.869Z,6.37
2018-09-13T18:37:50.367Z,5.57
2018-09-13T18:40:18.806Z,6.23
2018-09-13T18:42:47.046Z,6.30
2018-09-13T18:45:15.304Z,6.03
2018-09-13T18:47:44.130Z,6.23
2018-09-13T18:50:12.360Z,6.67
2018-09-13T18:52:40.564Z,6.50
2018-09-13T18:55:15.620Z,6.30
2018-09-13T18:57:43.805Z,6.47
2018-09-13T19:00:12.402Z,5.83
2018-09-13T19:02:40.694Z,6.73
2018-09-13T19:05:09.027Z,6.23
2018-09-13T19:07:37.231Z,6.60
2018-09-13T19:10:05.809Z,6.90
2018-09-13T19:12:34.288Z,7.40
2018-09-13T19:15:03.386Z,5.40
2018-09-13T19:17:31.577Z,7.30
2018-09-13T19:20:00.759Z,7.67
2018-09-13T19:22:28.948Z,7.20
2018-09-13T19:24:57.193Z,8.00
2018-09-13T19:27:25.413Z,7.93
2018-09-13T19:29:53.644Z,7.87
2018-09-13T19:32:21.854Z,6.70
2018-09-13T19:34:50.070Z,8.53
2018-09-13T19:37:18.393Z,7.40
2018-09-13T19:39:46.608Z,8.07
2018-09-13T19:42:16.204Z,6.70
2018-09-13T19:44:44.416Z,6.17
2018-09-13T19:47:12.661Z,9.53
2018-09-13T19:49:40.935Z,8.10
2018-09-13T19:52:09.113Z,7.40
2018-09-13T19:54:38.316Z,7.40
2018-09-13T19:57:06.574Z,7.10
2018-09-13T19:59:35.701Z,8.20
2018-09-13T20:02:03.924Z,7.07
2018-09-13T20:04:32.184Z,7.53
2018-09-13T20:07:00.384Z,8.13
2018-09-13T20:09:28.553Z,8.50
2018-09-13T20:11:56.824Z,8.93
2018-09-13T20:14:25.140Z,7.57
2018-09-13T20:16:53.380Z,8.30
2018-09-13T20:19:21.606Z,8.50
2018-09-13T20:21:49.834Z,6.60
2018-09-13T20:24:18.044Z,8.47
2018-09-13T20:26:46.292Z,8.20
2018-09-13T20:29:14.529Z,8.70
2018-09-13T20:31:42.770Z,7.47
2018-09-13T20:34:10.982Z,8.13
2018-09-13T20:36:39.281Z,9.43
2018-09-13T20:39:09.842Z,8.63
2018-09-13T20:41:38.321Z,9.30
2018-09-13T20:44:07.189Z,9.97
2018-09-13T20:46:35.454Z,8.33
2018-09-13T20:49:03.649Z,6.80
2018-09-13T20:51:31.946Z,6.37
2018-09-13T20:54:00.562Z,6.80
2018-09-13T20:56:28.908Z,6.00
2018-09-13T20:58:57.069Z,6.90
2018-09-13T21:01:25.296Z,5.77
2018-09-13T21:03:53.509Z,6.40
2018-09-13T21:06:21.777Z,6.33
2018-09-13T21:08:49.970Z,6.63
2018-09-13T21:11:18.205Z,5.00
2018-09-13T21:13:46.413Z,6.00
2018-09-13T21:16:14.785Z,4.97
2018-09-13T21:18:42.968Z,6.17
2018-09-13T21:21:11.198Z,6.13
2018-09-13T21:23:39.398Z,6.87
2018-09-13T21:26:07.639Z,6.23
2018-09-13T21:28:35.845Z,5.90
2018-09-13T21:31:04.053Z,5.93
2018-09-13T21:33:32.393Z,5.63
2018-09-13T21:36:00.605Z,5.90
2018-09-13T21:38:28.970Z,6.10
2018-09-13T21:40:57.137Z,5.33
2018-09-13T21:43:25.367Z,5.63
2018-09-13T21:45:53.592Z,6.43
2018-09-13T21:48:21.913Z,6.70
2018-09-13T21:50:50.139Z,5.50
2018-09-13T21:53:18.391Z,6.27
2018-09-13T21:55:46.568Z,6.73
2018-09-13T21:58:14.782Z,6.83
2018-09-13T22:00:42.994Z,6.07
2018-09-13T22:03:11.196Z,6.43
2018-09-13T22:05:39.357Z,6.03
2018-09-13T22:08:07.616Z,7.30
2018-09-13T22:10:35.805Z,4.90
2018-09-13T22:13:04.026Z,6.40
2018-09-13T22:15:32.209Z,6.23
2018-09-13T22:18:00.422Z,5.83
2018-09-13T22:20:28.860Z,6.70
2018-09-13T22:22:57.065Z,6.00
2018-09-13T22:25:25.249Z,6.23
2018-09-13T22:27:53.480Z,6.50
2018-09-13T22:30:21.657Z,6.90
2018-09-13T22:32:49.857Z,6.23
2018-09-13T22:35:18.702Z,6.70
2018-09-13T22:37:47.394Z,6.37
2018-09-13T22:40:16.058Z,6.43
2018-09-13T22:42:44.858Z,5.90
2018-09-13T22:45:13.516Z,5.73
2018-09-13T22:47:42.232Z,6.37
2018-09-13T22:50:10.954Z,6.07
2018-09-13T22:52:39.659Z,5.60
2018-09-13T22:55:08.426Z,6.33
2018-09-13T22:57:37.054Z,6.53
2018-09-13T23:00:06.015Z,6.40
2018-09-13T23:02:39.933Z,6.47
2018-09-13T23:05:08.755Z,6.57
2018-09-13T23:07:37.439Z,6.27
2018-09-13T23:10:06.267Z,5.13
2018-09-13T23:12:34.781Z,5.50
2018-09-13T23:15:03.005Z,5.47
2018-09-13T23:17:31.185Z,5.07
2018-09-13T23:19:59.437Z,5.10
2018-09-13T23:22:27.608Z,5.10
2018-09-13T23:24:55.872Z,5.00
2018-09-13T23:27:24.064Z,5.23
2018-09-13T23:29:52.293Z,5.57
2018-09-13T23:32:20.487Z,5.40
2018-09-13T23:34:48.708Z,4.73
2018-09-13T23:37:16.954Z,5.43
2018-09-13T23:39:45.454Z,5.20
2018-09-13T23:42:13.428Z,6.07
2018-09-13T23:44:41.633Z,5.10
2018-09-13T23:47:09.810Z,6.00
2018-09-13T23:49:38.197Z,5.90
2018-09-13T23:52:06.405Z,5.77
2018-09-13T23:54:34.637Z,5.90
2018-09-13T23:57:02.845Z,5.40
2018-09-13T23:59:31.081Z,4.43
